sensor_id;sensor_type;location;lat;lon;timestamp;pressure;altitude;pressure_sealevel;temperature;humidity
15634;BME280;14654;48.898;8.308;2023-01-29T00:01:10;101550.44;;;0.72;91.22
15634;BME280;14654;48.898;8.308;2023-01-29T00:03:36;101544.53;;;0.73;90.95
15634;BME280;14654;48.898;8.308;2023-01-29T00:06:06;101546.19;;;0.73;91.00
15634;BME280;14654;48.898;8.308;2023-01-29T00:08:33;101552.09;;;0.72;90.89
15634;BME280;14654;48.898;8.308;2023-01-29T00:11:00;101543.59;;;0.71;90.93
15634;BME280;14654;48.898;8.308;2023-01-29T00:13:26;101539.44;;;0.73;90.76
15634;BME280;14654;48.898;8.308;2023-01-29T00:15:59;101542.00;;;0.73;90.73
15634;BME280;14654;48.898;8.308;2023-01-29T00:18:25;101539.34;;;0.72;91.08
15634;BME280;14654;48.898;8.308;2023-01-29T00:20:51;101544.44;;;0.72;90.49
15634;BME280;14654;48.898;8.308;2023-01-29T00:23:17;101543.47;;;0.70;90.49
15634;BME280;14654;48.898;8.308;2023-01-29T00:25:43;101545.91;;;0.67;90.58
15634;BME280;14654;48.898;8.308;2023-01-29T00:28:09;101537.38;;;0.66;90.41
15634;BME280;14654;48.898;8.308;2023-01-29T00:30:35;101539.84;;;0.65;90.16
15634;BME280;14654;48.898;8.308;2023-01-29T00:33:00;101540.72;;;0.65;89.42
15634;BME280;14654;48.898;8.308;2023-01-29T00:35:26;101539.13;;;0.67;89.68
15634;BME280;14654;48.898;8.308;2023-01-29T00:38:00;101540.72;;;0.65;89.70
15634;BME280;14654;48.898;8.308;2023-01-29T00:40:26;101537.94;;;0.60;89.82
15634;BME280;14654;48.898;8.308;2023-01-29T00:42:51;101547.16;;;0.58;90.02
15634;BME280;14654;48.898;8.308;2023-01-29T00:45:35;101544.44;;;0.55;89.98
15634;BME280;14654;48.898;8.308;2023-01-29T00:48:04;101541.03;;;0.55;90.08
15634;BME280;14654;48.898;8.308;2023-01-29T00:50:32;101541.59;;;0.49;90.23
15634;BME280;14654;48.898;8.308;2023-01-29T00:53:16;101536.41;;;0.48;90.36
15634;BME280;14654;48.898;8.308;2023-01-29T00:55:45;101536.41;;;0.48;89.30
15634;BME280;14654;48.898;8.308;2023-01-29T00:58:13;101538.88;;;0.46;90.08
15634;BME280;14654;48.898;8.308;2023-01-29T01:00:47;101537.06;;;0.43;90.19
15634;BME280;14654;48.898;8.308;2023-01-29T01:03:20;101542.16;;;0.43;90.30
15634;BME280;14654;48.898;8.308;2023-01-29T01:05:48;101545.56;;;0.44;89.19
15634;BME280;14654;48.898;8.308;2023-01-29T01:08:17;101537.75;;;0.41;88.50
15634;BME280;14654;48.898;8.308;2023-01-29T01:11:05;101537.63;;;0.38;88.84
15634;BME280;14654;48.898;8.308;2023-01-29T01:13:31;101537.44;;;0.35;89.49
15634;BME280;14654;48.898;8.308;2023-01-29T01:15:57;101544.97;;;0.33;89.79
15634;BME280;14654;48.898;8.308;2023-01-29T01:18:22;101541.56;;;0.33;88.90
15634;BME280;14654;48.898;8.308;2023-01-29T01:20:48;101549.06;;;0.29;89.39
15634;BME280;14654;48.898;8.308;2023-01-29T01:23:19;101542.31;;;0.30;89.07
15634;BME280;14654;48.898;8.308;2023-01-29T01:25:44;101546.56;;;0.31;88.40
15634;BME280;14654;48.898;8.308;2023-01-29T01:28:19;101545.53;;;0.27;88.97
15634;BME280;14654;48.898;8.308;2023-01-29T01:30:48;101552.31;;;0.27;89.05
15634;BME280;14654;48.898;8.308;2023-01-29T01:33:16;101548.09;;;0.27;89.33
15634;BME280;14654;48.898;8.308;2023-01-29T01:35:50;101553.81;;;0.23;88.69
15634;BME280;14654;48.898;8.308;2023-01-29T01:38:15;101549.53;;;0.22;88.91
15634;BME280;14654;48.898;8.308;2023-01-29T01:40:46;101552.94;;;0.23;88.85
15634;BME280;14654;48.898;8.308;2023-01-29T01:43:12;101556.28;;;0.22;89.18
15634;BME280;14654;48.898;8.308;2023-01-29T01:45:39;101556.34;;;0.23;89.27
15634;BME280;14654;48.898;8.308;2023-01-29T01:48:10;101548.72;;;0.23;89.07
15634;BME280;14654;48.898;8.308;2023-01-29T01:53:28;101551.19;;;0.22;88.55
15634;BME280;14654;48.898;8.308;2023-01-29T01:56:04;101553.50;;;0.17;88.58
15634;BME280;14654;48.898;8.308;2023-01-29T01:58:36;101550.84;;;0.15;89.34
15634;BME280;14654;48.898;8.308;2023-01-29T02:01:12;101541.56;;;0.16;89.85
15634;BME280;14654;48.898;8.308;2023-01-29T02:03:42;101539.19;;;0.19;90.09
15634;BME280;14654;48.898;8.308;2023-01-29T02:06:31;101537.59;;;0.21;90.38
15634;BME280;14654;48.898;8.308;2023-01-29T02:09:22;101541.16;;;0.25;90.10
15634;BME280;14654;48.898;8.308;2023-01-29T02:12:00;101537.84;;;0.26;90.31
15634;BME280;14654;48.898;8.308;2023-01-29T02:14:30;101541.34;;;0.28;90.11
15634;BME280;14654;48.898;8.308;2023-01-29T02:17:03;101537.91;;;0.27;89.99
15634;BME280;14654;48.898;8.308;2023-01-29T02:25:49;101539.66;;;0.28;90.02
15634;BME280;14654;48.898;8.308;2023-01-29T02:31:28;101544.03;;;0.31;89.81
15634;BME280;14654;48.898;8.308;2023-01-29T02:37:24;101548.09;;;0.27;89.70
15634;BME280;14654;48.898;8.308;2023-01-29T02:40:16;101542.19;;;0.28;89.65
15634;BME280;14654;48.898;8.308;2023-01-29T02:42:51;101543.72;;;0.25;89.83
15634;BME280;14654;48.898;8.308;2023-01-29T02:45:42;101536.88;;;0.24;89.71
15634;BME280;14654;48.898;8.308;2023-01-29T02:48:16;101541.97;;;0.24;88.77
15634;BME280;14654;48.898;8.308;2023-01-29T02:51:04;101540.13;;;0.21;88.46
15634;BME280;14654;48.898;8.308;2023-01-29T02:56:29;101544.09;;;0.16;88.01
15634;BME280;14654;48.898;8.308;2023-01-29T02:59:02;101539.72;;;0.13;88.62
15634;BME280;14654;48.898;8.308;2023-01-29T03:01:39;101534.47;;;0.10;87.50
15634;BME280;14654;48.898;8.308;2023-01-29T03:04:16;101537.00;;;0.10;88.04
15634;BME280;14654;48.898;8.308;2023-01-29T03:06:55;101539.44;;;0.09;87.82
15634;BME280;14654;48.898;8.308;2023-01-29T03:09:32;101528.47;;;0.10;88.17
15634;BME280;14654;48.898;8.308;2023-01-29T03:12:04;101531.75;;;0.07;88.55
15634;BME280;14654;48.898;8.308;2023-01-29T03:14:52;101528.34;;;0.07;88.39
15634;BME280;14654;48.898;8.308;2023-01-29T03:18:02;101534.91;;;0.03;88.69
15634;BME280;14654;48.898;8.308;2023-01-29T03:20:34;101526.41;;;0.03;89.24
15634;BME280;14654;48.898;8.308;2023-01-29T03:23:22;101518.06;;;0.05;89.47
15634;BME280;14654;48.898;8.308;2023-01-29T03:26:00;101522.44;;;0.08;89.56
15634;BME280;14654;48.898;8.308;2023-01-29T03:28:47;101523.50;;;0.11;89.75
15634;BME280;14654;48.898;8.308;2023-01-29T03:31:35;101520.28;;;0.15;89.63
15634;BME280;14654;48.898;8.308;2023-01-29T03:34:26;101522.22;;;0.20;89.62
15634;BME280;14654;48.898;8.308;2023-01-29T03:37:07;101523.00;;;0.19;89.63
15634;BME280;14654;48.898;8.308;2023-01-29T03:39:44;101522.94;;;0.17;89.63
15634;BME280;14654;48.898;8.308;2023-01-29T03:45:03;101534.53;;;0.12;89.16
15634;BME280;14654;48.898;8.308;2023-01-29T03:50:44;101528.25;;;0.05;89.15
15634;BME280;14654;48.898;8.308;2023-01-29T03:53:29;101530.59;;;0.02;90.02
15634;BME280;14654;48.898;8.308;2023-01-29T03:56:20;101530.53;;;0.01;90.26
15634;BME280;14654;48.898;8.308;2023-01-29T03:59:01;101526.31;;;0.01;90.63
15634;BME280;14654;48.898;8.308;2023-01-29T04:01:53;101531.50;;;0.03;90.86
15634;BME280;14654;48.898;8.308;2023-01-29T04:04:29;101531.56;;;0.04;90.39
15634;BME280;14654;48.898;8.308;2023-01-29T04:07:01;101538.25;;;0.02;90.34
15634;BME280;14654;48.898;8.308;2023-01-29T04:09:39;101531.34;;;-0.01;90.49
15634;BME280;14654;48.898;8.308;2023-01-29T04:12:07;101538.19;;;0.01;90.79
15634;BME280;14654;48.898;8.308;2023-01-29T04:14:34;101528.06;;;0.02;90.93
15634;BME280;14654;48.898;8.308;2023-01-29T04:17:11;101533.34;;;0.05;91.03
15634;BME280;14654;48.898;8.308;2023-01-29T04:19:39;101534.47;;;0.10;91.33
15634;BME280;14654;48.898;8.308;2023-01-29T04:22:11;101533.03;;;0.15;91.50
15634;BME280;14654;48.898;8.308;2023-01-29T04:24:42;101535.75;;;0.19;91.40
15634;BME280;14654;48.898;8.308;2023-01-29T04:27:35;101534.78;;;0.17;90.91
15634;BME280;14654;48.898;8.308;2023-01-29T04:33:02;101531.19;;;0.13;90.74
15634;BME280;14654;48.898;8.308;2023-01-29T04:38:15;101529.94;;;0.05;91.03
15634;BME280;14654;48.898;8.308;2023-01-29T04:41:33;101532.38;;;0.03;91.49
15634;BME280;14654;48.898;8.308;2023-01-29T04:50:00;101530.72;;;0.04;91.46
15634;BME280;14654;48.898;8.308;2023-01-29T04:55:42;101529.19;;;0.07;91.77
15634;BME280;14654;48.898;8.308;2023-01-29T04:58:33;101527.63;;;0.09;91.95
15634;BME280;14654;48.898;8.308;2023-01-29T05:01:05;101524.34;;;0.12;92.10
15634;BME280;14654;48.898;8.308;2023-01-29T05:03:40;101529.69;;;0.17;91.56
15634;BME280;14654;48.898;8.308;2023-01-29T05:06:10;101528.03;;;0.17;91.18
15634;BME280;14654;48.898;8.308;2023-01-29T05:08:36;101535.50;;;0.14;90.93
15634;BME280;14654;48.898;8.308;2023-01-29T05:11:03;101534.47;;;0.10;90.80
15634;BME280;14654;48.898;8.308;2023-01-29T05:13:30;101544.66;;;0.10;90.67
15634;BME280;14654;48.898;8.308;2023-01-29T05:16:16;101551.38;;;0.10;90.08
15634;BME280;14654;48.898;8.308;2023-01-29T05:18:43;101550.19;;;0.03;91.14
15634;BME280;14654;48.898;8.308;2023-01-29T05:21:09;101545.88;;;0.02;90.60
15634;BME280;14654;48.898;8.308;2023-01-29T05:23:34;101538.97;;;-0.01;90.65
15634;BME280;14654;48.898;8.308;2023-01-29T05:26:00;101525.28;;;-0.03;91.13
15634;BME280;14654;48.898;8.308;2023-01-29T05:28:25;101513.44;;;-0.02;91.23
15634;BME280;14654;48.898;8.308;2023-01-29T05:30:52;101506.66;;;-0.02;91.05
15634;BME280;14654;48.898;8.308;2023-01-29T05:33:21;101495.63;;;-0.02;91.26
15634;BME280;14654;48.898;8.308;2023-01-29T05:35:47;101488.84;;;-0.02;91.56
15634;BME280;14654;48.898;8.308;2023-01-29T05:38:13;101486.31;;;-0.02;90.71
15634;BME280;14654;48.898;8.308;2023-01-29T05:40:39;101509.22;;;-0.02;90.37
15634;BME280;14654;48.898;8.308;2023-01-29T05:43:05;101505.63;;;-0.05;90.71
15634;BME280;14654;48.898;8.308;2023-01-29T05:45:31;101503.81;;;-0.08;90.46
15634;BME280;14654;48.898;8.308;2023-01-29T05:47:58;101489.22;;;-0.10;91.14
15634;BME280;14654;48.898;8.308;2023-01-29T05:50:24;101499.34;;;-0.12;91.62
15634;BME280;14654;48.898;8.308;2023-01-29T05:52:58;101508.97;;;-0.06;91.70
15634;BME280;14654;48.898;8.308;2023-01-29T05:55:27;101508.50;;;0.01;91.21
15634;BME280;14654;48.898;8.308;2023-01-29T05:57:56;101509.16;;;-0.03;91.15
15634;BME280;14654;48.898;8.308;2023-01-29T06:00:25;101508.97;;;-0.06;91.24
15634;BME280;14654;48.898;8.308;2023-01-29T06:02:50;101520.91;;;-0.05;90.98
15634;BME280;14654;48.898;8.308;2023-01-29T06:05:37;101526.00;;;-0.05;91.57
15634;BME280;14654;48.898;8.308;2023-01-29T06:08:02;101530.19;;;-0.06;91.60
15634;BME280;14654;48.898;8.308;2023-01-29T06:10:31;101525.03;;;-0.07;91.98
15634;BME280;14654;48.898;8.308;2023-01-29T06:12:56;101537.22;;;-0.02;91.36
15634;BME280;14654;48.898;8.308;2023-01-29T06:15:24;101543.88;;;-0.04;91.46
15634;BME280;14654;48.898;8.308;2023-01-29T06:17:59;101545.47;;;-0.06;91.28
15634;BME280;14654;48.898;8.308;2023-01-29T06:20:27;101554.59;;;-0.09;91.32
15634;BME280;14654;48.898;8.308;2023-01-29T06:22:52;101546.13;;;-0.10;91.32
15634;BME280;14654;48.898;8.308;2023-01-29T06:25:17;101541.72;;;-0.12;91.24
15634;BME280;14654;48.898;8.308;2023-01-29T06:27:43;101545.84;;;-0.14;91.79
15634;BME280;14654;48.898;8.308;2023-01-29T06:30:09;101539.94;;;-0.13;91.55
15634;BME280;14654;48.898;8.308;2023-01-29T06:32:34;101531.63;;;-0.11;91.92
15634;BME280;14654;48.898;8.308;2023-01-29T06:35:02;101530.56;;;-0.14;91.28
15634;BME280;14654;48.898;8.308;2023-01-29T06:37:27;101532.88;;;-0.19;92.09
15634;BME280;14654;48.898;8.308;2023-01-29T06:39:53;101537.94;;;-0.19;92.08
15634;BME280;14654;48.898;8.308;2023-01-29T06:42:21;101522.69;;;-0.19;92.05
15634;BME280;14654;48.898;8.308;2023-01-29T06:44:55;101526.13;;;-0.19;92.29
15634;BME280;14654;48.898;8.308;2023-01-29T06:47:23;101539.88;;;-0.15;92.46
15634;BME280;14654;48.898;8.308;2023-01-29T06:49:53;101524.78;;;-0.12;92.08
15634;BME280;14654;48.898;8.308;2023-01-29T06:52:28;101521.47;;;-0.11;91.79
15634;BME280;14654;48.898;8.308;2023-01-29T06:54:54;101520.75;;;-0.08;91.56
15634;BME280;14654;48.898;8.308;2023-01-29T06:57:20;101514.84;;;-0.07;91.25
15634;BME280;14654;48.898;8.308;2023-01-29T06:59:45;101523.34;;;-0.07;91.28
15634;BME280;14654;48.898;8.308;2023-01-29T07:02:11;101513.03;;;-0.10;91.10
15634;BME280;14654;48.898;8.308;2023-01-29T07:04:36;101521.34;;;-0.12;91.67
15634;BME280;14654;48.898;8.308;2023-01-29T07:07:06;101522.16;;;-0.13;91.47
15634;BME280;14654;48.898;8.308;2023-01-29T07:09:37;101526.44;;;-0.12;91.30
15634;BME280;14654;48.898;8.308;2023-01-29T07:12:03;101529.00;;;-0.12;91.49
15634;BME280;14654;48.898;8.308;2023-01-29T07:14:35;101539.28;;;-0.11;91.59
15634;BME280;14654;48.898;8.308;2023-01-29T07:17:00;101539.94;;;-0.13;91.76
15634;BME280;14654;48.898;8.308;2023-01-29T07:19:25;101544.97;;;-0.15;92.59
15634;BME280;14654;48.898;8.308;2023-01-29T07:21:54;101543.28;;;-0.14;92.65
15634;BME280;14654;48.898;8.308;2023-01-29T07:24:22;101551.88;;;-0.12;93.03
15634;BME280;14654;48.898;8.308;2023-01-29T07:26:48;101554.53;;;-0.11;93.06
15634;BME280;14654;48.898;8.308;2023-01-29T07:29:14;101554.59;;;-0.09;93.37
15634;BME280;14654;48.898;8.308;2023-01-29T07:31:39;101563.28;;;-0.06;93.33
15634;BME280;14654;48.898;8.308;2023-01-29T07:34:04;101562.41;;;-0.06;93.06
15634;BME280;14654;48.898;8.308;2023-01-29T07:36:32;101552.16;;;-0.08;92.58
15634;BME280;14654;48.898;8.308;2023-01-29T07:38:58;101552.84;;;-0.10;92.86
15634;BME280;14654;48.898;8.308;2023-01-29T07:41:23;101550.47;;;-0.07;92.86
15634;BME280;14654;48.898;8.308;2023-01-29T07:43:48;101545.63;;;-0.03;92.13
15634;BME280;14654;48.898;8.308;2023-01-29T07:46:19;101543.50;;;0.05;91.55
15634;BME280;14654;48.898;8.308;2023-01-29T07:48:47;101546.31;;;0.10;91.27
15634;BME280;14654;48.898;8.308;2023-01-29T07:51:15;101547.50;;;0.17;91.20
15634;BME280;14654;48.898;8.308;2023-01-29T07:53:42;101563.91;;;0.22;90.75
15634;BME280;14654;48.898;8.308;2023-01-29T07:56:09;101566.47;;;0.22;90.01
15634;BME280;14654;48.898;8.308;2023-01-29T07:58:34;101578.22;;;0.20;89.74
15634;BME280;14654;48.898;8.308;2023-01-29T08:01:04;101581.50;;;0.17;90.17
15634;BME280;14654;48.898;8.308;2023-01-29T08:03:29;101586.47;;;0.15;90.59
15634;BME280;14654;48.898;8.308;2023-01-29T08:05:57;101590.00;;;0.18;90.24
15634;BME280;14654;48.898;8.308;2023-01-29T08:08:22;101591.75;;;0.19;90.62
15634;BME280;14654;48.898;8.308;2023-01-29T08:10:59;101593.59;;;0.21;90.38
15634;BME280;14654;48.898;8.308;2023-01-29T08:13:25;101583.50;;;0.23;90.18
15634;BME280;14654;48.898;8.308;2023-01-29T08:15:50;101582.94;;;0.28;89.25
15634;BME280;14654;48.898;8.308;2023-01-29T08:18:21;101578.63;;;0.27;89.51
15634;BME280;14654;48.898;8.308;2023-01-29T08:20:50;101583.13;;;0.32;88.96
15634;BME280;14654;48.898;8.308;2023-01-29T08:23:15;101594.34;;;0.35;88.43
15634;BME280;14654;48.898;8.308;2023-01-29T08:25:46;101591.88;;;0.37;88.38
15634;BME280;14654;48.898;8.308;2023-01-29T08:28:21;101592.56;;;0.34;88.21
15634;BME280;14654;48.898;8.308;2023-01-29T08:30:58;101589.84;;;0.31;88.85
15634;BME280;14654;48.898;8.308;2023-01-29T08:33:26;101588.94;;;0.29;89.22
15634;BME280;14654;48.898;8.308;2023-01-29T08:36:09;101583.03;;;0.30;89.21
15634;BME280;14654;48.898;8.308;2023-01-29T08:38:35;101599.34;;;0.34;89.57
15634;BME280;14654;48.898;8.308;2023-01-29T08:41:00;101594.50;;;0.38;89.53
15634;BME280;14654;48.898;8.308;2023-01-29T08:43:26;101595.94;;;0.50;89.02
15634;BME280;14654;48.898;8.308;2023-01-29T08:45:51;101596.34;;;0.57;88.90
15634;BME280;14654;48.898;8.308;2023-01-29T08:48:19;101598.69;;;0.69;88.22
15634;BME280;14654;48.898;8.308;2023-01-29T08:50:49;101600.09;;;0.81;87.91
15634;BME280;14654;48.898;8.308;2023-01-29T08:53:17;101600.59;;;0.90;86.74
15634;BME280;14654;48.898;8.308;2023-01-29T08:55:44;101606.78;;;0.95;86.93
15634;BME280;14654;48.898;8.308;2023-01-29T08:58:12;101595.97;;;0.99;86.37
15634;BME280;14654;48.898;8.308;2023-01-29T09:00:43;101599.47;;;1.01;86.46
15634;BME280;14654;48.898;8.308;2023-01-29T09:03:11;101590.53;;;1.10;86.54
15634;BME280;14654;48.898;8.308;2023-01-29T09:05:49;101592.03;;;1.23;85.55
15634;BME280;14654;48.898;8.308;2023-01-29T09:08:17;101589.06;;;1.31;85.39
15634;BME280;14654;48.898;8.308;2023-01-29T09:10:53;101580.69;;;1.34;84.87
15634;BME280;14654;48.898;8.308;2023-01-29T09:13:21;101586.59;;;1.33;84.90
15634;BME280;14654;48.898;8.308;2023-01-29T09:15:49;101588.44;;;1.35;85.11
15634;BME280;14654;48.898;8.308;2023-01-29T09:18:19;101599.66;;;1.39;85.09
15634;BME280;14654;48.898;8.308;2023-01-29T09:20:46;101601.69;;;1.46;84.80
15634;BME280;14654;48.898;8.308;2023-01-29T09:23:14;101611.47;;;1.55;84.83
15634;BME280;14654;48.898;8.308;2023-01-29T09:25:41;101606.13;;;1.67;84.77
15634;BME280;14654;48.898;8.308;2023-01-29T09:28:07;101617.56;;;1.75;84.10
15634;BME280;14654;48.898;8.308;2023-01-29T09:30:32;101612.13;;;1.86;83.88
15634;BME280;14654;48.898;8.308;2023-01-29T09:32:59;101609.50;;;2.02;83.05
15634;BME280;14654;48.898;8.308;2023-01-29T09:35:25;101596.56;;;2.17;83.09
15634;BME280;14654;48.898;8.308;2023-01-29T09:37:53;101589.41;;;2.28;82.28
15634;BME280;14654;48.898;8.308;2023-01-29T09:40:46;101581.69;;;2.46;81.53
15634;BME280;14654;48.898;8.308;2023-01-29T09:43:21;101563.94;;;2.49;81.26
15634;BME280;14654;48.898;8.308;2023-01-29T09:46:00;101555.75;;;2.56;80.79
15634;BME280;14654;48.898;8.308;2023-01-29T09:48:31;101542.22;;;2.59;80.41
15634;BME280;14654;48.898;8.308;2023-01-29T09:51:04;101538.44;;;2.70;80.29
15634;BME280;14654;48.898;8.308;2023-01-29T09:53:50;101534.63;;;2.80;80.15
15634;BME280;14654;48.898;8.308;2023-01-29T09:56:20;101539.06;;;2.84;79.90
15634;BME280;14654;48.898;8.308;2023-01-29T09:58:56;101544.69;;;2.97;80.09
15634;BME280;14654;48.898;8.308;2023-01-29T10:01:35;101544.34;;;3.09;79.99
15634;BME280;14654;48.898;8.308;2023-01-29T10:09:48;101538.53;;;3.34;79.33
15634;BME280;14654;48.898;8.308;2023-01-29T10:22:44;101549.16;;;3.43;78.03
15634;BME280;14654;48.898;8.308;2023-01-29T10:25:16;101545.84;;;3.46;77.95
15634;BME280;14654;48.898;8.308;2023-01-29T10:27:55;101542.03;;;3.57;77.65
15634;BME280;14654;48.898;8.308;2023-01-29T10:30:36;101555.22;;;3.66;77.59
15634;BME280;14654;48.898;8.308;2023-01-29T10:33:12;101556.78;;;3.63;76.75
15634;BME280;14654;48.898;8.308;2023-01-29T10:35:43;101546.53;;;3.63;76.71
15634;BME280;14654;48.898;8.308;2023-01-29T10:38:36;101547.53;;;3.66;76.78
15634;BME280;14654;48.898;8.308;2023-01-29T10:50:19;101556.53;;;4.23;76.25
15634;BME280;14654;48.898;8.308;2023-01-29T10:53:16;101552.63;;;4.33;75.71
15634;BME280;14654;48.898;8.308;2023-01-29T10:58:41;101567.00;;;4.30;75.45
15634;BME280;14654;48.898;8.308;2023-01-29T11:01:09;101570.44;;;4.30;75.32
15634;BME280;14654;48.898;8.308;2023-01-29T11:03:38;101556.00;;;4.32;75.26
15634;BME280;14654;48.898;8.308;2023-01-29T11:06:23;101544.22;;;4.37;75.49
15634;BME280;14654;48.898;8.308;2023-01-29T11:11:46;101533.47;;;4.48;75.85
15634;BME280;14654;48.898;8.308;2023-01-29T11:14:21;101526.50;;;4.43;75.23
15634;BME280;14654;48.898;8.308;2023-01-29T11:16:48;101529.66;;;4.36;75.06
15634;BME280;14654;48.898;8.308;2023-01-29T11:19:15;101521.78;;;4.32;75.39
15634;BME280;14654;48.898;8.308;2023-01-29T11:21:57;101511.53;;;4.32;75.58
15634;BME280;14654;48.898;8.308;2023-01-29T11:24:23;101515.03;;;4.34;75.78
15634;BME280;14654;48.898;8.308;2023-01-29T11:26:51;101513.47;;;4.37;75.37
15634;BME280;14654;48.898;8.308;2023-01-29T11:31:58;101500.19;;;4.25;75.02
15634;BME280;14654;48.898;8.308;2023-01-29T11:34:27;101501.19;;;4.29;75.25
15634;BME280;14654;48.898;8.308;2023-01-29T11:37:00;101504.06;;;4.38;75.26
15634;BME280;14654;48.898;8.308;2023-01-29T11:39:42;101490.44;;;4.39;74.77
15634;BME280;14654;48.898;8.308;2023-01-29T11:42:20;101485.91;;;4.32;74.46
15634;BME280;14654;48.898;8.308;2023-01-29T11:44:46;101484.13;;;4.29;74.50
15634;BME280;14654;48.898;8.308;2023-01-29T11:49:37;101479.22;;;4.35;74.88
15634;BME280;14654;48.898;8.308;2023-01-29T11:52:09;101480.19;;;4.39;74.94
15634;BME280;14654;48.898;8.308;2023-01-29T11:54:43;101467.41;;;4.40;74.93
15634;BME280;14654;48.898;8.308;2023-01-29T11:57:22;101468.50;;;4.47;75.29
15634;BME280;14654;48.898;8.308;2023-01-29T12:00:26;101467.91;;;4.54;75.35
15634;BME280;14654;48.898;8.308;2023-01-29T12:05:53;101445.00;;;4.59;75.40
15634;BME280;14654;48.898;8.308;2023-01-29T12:08:23;101440.38;;;4.49;74.93
15634;BME280;14654;48.898;8.308;2023-01-29T12:11:27;101437.59;;;4.42;75.12
15634;BME280;14654;48.898;8.308;2023-01-29T12:14:04;101437.47;;;4.39;75.22
15634;BME280;14654;48.898;8.308;2023-01-29T12:17:16;101430.84;;;4.45;75.43
15634;BME280;14654;48.898;8.308;2023-01-29T12:20:19;101417.25;;;4.47;75.39
15634;BME280;14654;48.898;8.308;2023-01-29T12:22:59;101413.84;;;4.48;75.06
15634;BME280;14654;48.898;8.308;2023-01-29T12:28:41;101402.44;;;4.64;75.49
15634;BME280;14654;48.898;8.308;2023-01-29T12:33:45;101400.25;;;4.75;74.68
15634;BME280;14654;48.898;8.308;2023-01-29T12:36:20;101394.69;;;4.63;74.95
15634;BME280;14654;48.898;8.308;2023-01-29T12:38:48;101387.91;;;4.65;75.29
15634;BME280;14654;48.898;8.308;2023-01-29T12:45:15;101380.34;;;4.68;75.76
15634;BME280;14654;48.898;8.308;2023-01-29T12:50:05;101357.84;;;4.86;75.83
15634;BME280;14654;48.898;8.308;2023-01-29T12:52:38;101358.09;;;4.94;75.47
15634;BME280;14654;48.898;8.308;2023-01-29T12:55:21;101360.69;;;4.96;75.28
15634;BME280;14654;48.898;8.308;2023-01-29T12:58:18;101355.38;;;4.90;75.42
15634;BME280;14654;48.898;8.308;2023-01-29T13:00:49;101346.81;;;4.89;74.67
15634;BME280;14654;48.898;8.308;2023-01-29T13:08:19;101327.31;;;4.94;74.28
15634;BME280;14654;48.898;8.308;2023-01-29T13:10:49;101327.31;;;4.94;73.99
15634;BME280;14654;48.898;8.308;2023-01-29T13:13:36;101326.75;;;5.04;74.21
15634;BME280;14654;48.898;8.308;2023-01-29T13:16:10;101332.25;;;5.17;73.90
15634;BME280;14654;48.898;8.308;2023-01-29T13:18:43;101331.72;;;5.27;73.81
15634;BME280;14654;48.898;8.308;2023-01-29T13:21:17;101327.78;;;5.39;73.75
15634;BME280;14654;48.898;8.308;2023-01-29T13:23:49;101325.44;;;5.46;73.06
15634;BME280;14654;48.898;8.308;2023-01-29T13:26:19;101329.91;;;5.54;72.95
15634;BME280;14654;48.898;8.308;2023-01-29T13:28:46;101322.41;;;5.61;73.03
15634;BME280;14654;48.898;8.308;2023-01-29T13:36:25;101320.16;;;5.72;71.65
15634;BME280;14654;48.898;8.308;2023-01-29T13:39:01;101323.53;;;5.71;72.22
15634;BME280;14654;48.898;8.308;2023-01-29T13:41:40;101317.53;;;5.71;71.96
15634;BME280;14654;48.898;8.308;2023-01-29T13:44:22;101328.69;;;5.71;72.18
15634;BME280;14654;48.898;8.308;2023-01-29T13:49:27;101328.34;;;5.89;71.73
15634;BME280;14654;48.898;8.308;2023-01-29T13:51:54;101323.88;;;5.84;72.09
15634;BME280;14654;48.898;8.308;2023-01-29T13:54:23;101334.00;;;5.77;72.66
15634;BME280;14654;48.898;8.308;2023-01-29T13:56:58;101331.22;;;5.70;72.57
15634;BME280;14654;48.898;8.308;2023-01-29T13:59:52;101335.13;;;5.57;72.46
15634;BME280;14654;48.898;8.308;2023-01-29T14:02:22;101337.31;;;5.43;72.68
15634;BME280;14654;48.898;8.308;2023-01-29T14:04:47;101330.91;;;5.28;72.91
15634;BME280;14654;48.898;8.308;2023-01-29T14:07:47;101326.97;;;5.11;73.33
15634;BME280;14654;48.898;8.308;2023-01-29T14:10:19;101317.88;;;4.93;73.83
15634;BME280;14654;48.898;8.308;2023-01-29T14:12:46;101323.44;;;4.80;74.15
15634;BME280;14654;48.898;8.308;2023-01-29T14:17:53;101309.34;;;4.67;74.82
15634;BME280;14654;48.898;8.308;2023-01-29T14:20:23;101310.06;;;4.63;74.84
15634;BME280;14654;48.898;8.308;2023-01-29T14:22:53;101304.81;;;4.58;74.72
15634;BME280;14654;48.898;8.308;2023-01-29T14:25:23;101304.81;;;4.58;74.98
15634;BME280;14654;48.898;8.308;2023-01-29T14:27:57;101309.06;;;4.57;74.90
15634;BME280;14654;48.898;8.308;2023-01-29T14:30:23;101304.88;;;4.60;75.07
15634;BME280;14654;48.898;8.308;2023-01-29T14:32:51;101298.75;;;4.56;74.79
15634;BME280;14654;48.898;8.308;2023-01-29T14:35:23;101308.88;;;4.51;74.94
15634;BME280;14654;48.898;8.308;2023-01-29T14:37:52;101298.38;;;4.43;75.17
15634;BME280;14654;48.898;8.308;2023-01-29T14:43:03;101299.72;;;4.32;75.26
15634;BME280;14654;48.898;8.308;2023-01-29T14:45:36;101293.09;;;4.13;75.54
15634;BME280;14654;48.898;8.308;2023-01-29T14:48:49;101294.25;;;3.97;76.24
15634;BME280;14654;48.898;8.308;2023-01-29T14:50:52;101290.34;;;3.83;76.65
15634;BME280;14654;48.898;8.308;2023-01-29T14:56:14;101287.88;;;3.60;77.53
15634;BME280;14654;48.898;8.308;2023-01-29T14:58:50;101290.03;;;3.49;78.06
15634;BME280;14654;48.898;8.308;2023-01-29T15:03:45;101306.34;;;3.28;78.73
15634;BME280;14654;48.898;8.308;2023-01-29T15:06:34;101306.81;;;3.18;78.98
15634;BME280;14654;48.898;8.308;2023-01-29T15:18:03;101292.56;;;2.79;80.64
15634;BME280;14654;48.898;8.308;2023-01-29T15:20:33;101293.19;;;2.73;80.86
15634;BME280;14654;48.898;8.308;2023-01-29T15:23:00;101297.31;;;2.70;81.24
15634;BME280;14654;48.898;8.308;2023-01-29T15:25:33;101301.41;;;2.66;81.28
15634;BME280;14654;48.898;8.308;2023-01-29T15:28:00;101306.34;;;2.62;81.46